sensor_id;sensor_type;location;lat;lon;timestamp;P1;durP1;ratioP1;P2;durP2;ratioP2
68273;SDS011;55104;47.356;19.448;2023-05-14T00:02:39;12.95;;;2.97;;
68273;SDS011;55104;47.356;19.448;2023-05-14T00:05:41;8.73;;;2.45;;
68273;SDS011;55104;47.356;19.448;2023-05-14T00:08:43;10.00;;;3.73;;
68273;SDS011;55104;47.356;19.448;2023-05-14T00:11:45;7.93;;;2.85;;
68273;SDS011;55104;47.356;19.448;2023-05-14T00:14:47;7.43;;;3.70;;
68273;SDS011;55104;47.356;19.448;2023-05-14T00:17:49;9.13;;;3.40;;
68273;SDS011;55104;47.356;19.448;2023-05-14T00:20:51;7.87;;;3.33;;
68273;SDS011;55104;47.356;19.448;2023-05-14T00:23:55;6.53;;;2.95;;
68273;SDS011;55104;47.356;19.448;2023-05-14T00:26:57;7.95;;;3.38;;
68273;SDS011;55104;47.356;19.448;2023-05-14T00:29:59;8.07;;;3.55;;
68273;SDS011;55104;47.356;19.448;2023-05-14T00:33:01;8.90;;;3.63;;
68273;SDS011;55104;47.356;19.448;2023-05-14T00:36:04;9.02;;;3.30;;
68273;SDS011;55104;47.356;19.448;2023-05-14T00:39:06;8.02;;;3.30;;
68273;SDS011;55104;47.356;19.448;2023-05-14T00:42:08;11.23;;;4.20;;
68273;SDS011;55104;47.356;19.448;2023-05-14T00:45:10;8.10;;;2.87;;
68273;SDS011;55104;47.356;19.448;2023-05-14T00:48:12;8.55;;;2.83;;
68273;SDS011;55104;47.356;19.448;2023-05-14T00:51:15;10.85;;;3.58;;
68273;SDS011;55104;47.356;19.448;2023-05-14T00:54:18;9.82;;;3.95;;
68273;SDS011;55104;47.356;19.448;2023-05-14T00:57:21;8.93;;;3.57;;
68273;SDS011;55104;47.356;19.448;2023-05-14T01:00:23;7.45;;;2.70;;
68273;SDS011;55104;47.356;19.448;2023-05-14T01:03:25;10.32;;;3.40;;
68273;SDS011;55104;47.356;19.448;2023-05-14T01:09:58;9.80;;;3.60;;
68273;SDS011;55104;47.356;19.448;2023-05-14T01:16:30;8.95;;;3.47;;
68273;SDS011;55104;47.356;19.448;2023-05-14T01:19:41;5.82;;;2.72;;
68273;SDS011;55104;47.356;19.448;2023-05-14T01:22:45;8.53;;;3.47;;
68273;SDS011;55104;47.356;19.448;2023-05-14T01:25:47;7.90;;;2.75;;
68273;SDS011;55104;47.356;19.448;2023-05-14T01:28:49;7.57;;;3.00;;
68273;SDS011;55104;47.356;19.448;2023-05-14T01:31:54;8.65;;;3.65;;
68273;SDS011;55104;47.356;19.448;2023-05-14T01:34:57;10.43;;;3.63;;
68273;SDS011;55104;47.356;19.448;2023-05-14T01:38:02;9.20;;;3.47;;
68273;SDS011;55104;47.356;19.448;2023-05-14T01:41:07;8.82;;;3.22;;
68273;SDS011;55104;47.356;19.448;2023-05-14T01:44:09;9.02;;;3.15;;
68273;SDS011;55104;47.356;19.448;2023-05-14T01:47:11;7.65;;;3.10;;
68273;SDS011;55104;47.356;19.448;2023-05-14T01:50:13;7.80;;;2.67;;
68273;SDS011;55104;47.356;19.448;2023-05-14T01:53:15;8.60;;;3.30;;
68273;SDS011;55104;47.356;19.448;2023-05-14T01:56:18;10.07;;;3.90;;
68273;SDS011;55104;47.356;19.448;2023-05-14T01:59:22;9.38;;;2.72;;
68273;SDS011;55104;47.356;19.448;2023-05-14T02:02:24;7.23;;;3.27;;
68273;SDS011;55104;47.356;19.448;2023-05-14T02:05:26;7.90;;;2.80;;
68273;SDS011;55104;47.356;19.448;2023-05-14T02:08:28;5.82;;;2.13;;
68273;SDS011;55104;47.356;19.448;2023-05-14T02:11:30;10.05;;;3.65;;
68273;SDS011;55104;47.356;19.448;2023-05-14T02:14:32;8.30;;;2.85;;
68273;SDS011;55104;47.356;19.448;2023-05-14T02:17:34;7.53;;;2.83;;
68273;SDS011;55104;47.356;19.448;2023-05-14T02:20:37;10.18;;;2.75;;
68273;SDS011;55104;47.356;19.448;2023-05-14T02:23:39;8.23;;;3.17;;
68273;SDS011;55104;47.356;19.448;2023-05-14T02:26:43;7.63;;;3.22;;
68273;SDS011;55104;47.356;19.448;2023-05-14T02:29:44;7.57;;;2.88;;
68273;SDS011;55104;47.356;19.448;2023-05-14T02:32:47;7.75;;;2.60;;
68273;SDS011;55104;47.356;19.448;2023-05-14T02:35:49;6.30;;;2.67;;
68273;SDS011;55104;47.356;19.448;2023-05-14T02:38:51;5.18;;;2.15;;
68273;SDS011;55104;47.356;19.448;2023-05-14T02:41:55;11.15;;;3.92;;
68273;SDS011;55104;47.356;19.448;2023-05-14T02:44:57;6.95;;;2.75;;
68273;SDS011;55104;47.356;19.448;2023-05-14T02:48:00;7.67;;;2.90;;
68273;SDS011;55104;47.356;19.448;2023-05-14T02:51:02;7.53;;;2.72;;
68273;SDS011;55104;47.356;19.448;2023-05-14T02:54:04;9.00;;;3.40;;
68273;SDS011;55104;47.356;19.448;2023-05-14T02:57:06;6.93;;;2.15;;
68273;SDS011;55104;47.356;19.448;2023-05-14T03:00:09;7.90;;;3.30;;
68273;SDS011;55104;47.356;19.448;2023-05-14T03:03:12;10.07;;;2.47;;
68273;SDS011;55104;47.356;19.448;2023-05-14T03:06:14;8.30;;;3.22;;
68273;SDS011;55104;47.356;19.448;2023-05-14T03:09:16;5.82;;;2.35;;
68273;SDS011;55104;47.356;19.448;2023-05-14T03:12:18;7.30;;;2.50;;
68273;SDS011;55104;47.356;19.448;2023-05-14T03:15:21;7.45;;;2.58;;
68273;SDS011;55104;47.356;19.448;2023-05-14T03:18:23;6.50;;;2.40;;
68273;SDS011;55104;47.356;19.448;2023-05-14T03:21:25;6.93;;;2.85;;
68273;SDS011;55104;47.356;19.448;2023-05-14T03:24:27;8.60;;;3.00;;
68273;SDS011;55104;47.356;19.448;2023-05-14T03:27:29;9.32;;;3.47;;
68273;SDS011;55104;47.356;19.448;2023-05-14T03:30:31;8.77;;;3.00;;
68273;SDS011;55104;47.356;19.448;2023-05-14T03:33:33;9.20;;;2.97;;
68273;SDS011;55104;47.356;19.448;2023-05-14T03:36:36;6.80;;;2.90;;
68273;SDS011;55104;47.356;19.448;2023-05-14T03:39:40;8.93;;;3.28;;
68273;SDS011;55104;47.356;19.448;2023-05-14T03:42:42;6.40;;;2.60;;
68273;SDS011;55104;47.356;19.448;2023-05-14T03:45:44;7.55;;;2.45;;
68273;SDS011;55104;47.356;19.448;2023-05-14T03:48:46;5.70;;;2.43;;
68273;SDS011;55104;47.356;19.448;2023-05-14T03:51:48;11.20;;;3.03;;
68273;SDS011;55104;47.356;19.448;2023-05-14T03:54:51;7.40;;;2.47;;
68273;SDS011;55104;47.356;19.448;2023-05-14T03:57:53;7.88;;;2.45;;
68273;SDS011;55104;47.356;19.448;2023-05-14T04:00:55;7.18;;;1.80;;
68273;SDS011;55104;47.356;19.448;2023-05-14T04:03:57;5.20;;;2.13;;
68273;SDS011;55104;47.356;19.448;2023-05-14T04:06:59;7.13;;;2.50;;
68273;SDS011;55104;47.356;19.448;2023-05-14T04:10:02;12.05;;;3.15;;
68273;SDS011;55104;47.356;19.448;2023-05-14T04:13:08;6.90;;;2.40;;
68273;SDS011;55104;47.356;19.448;2023-05-14T04:16:12;6.00;;;2.40;;
68273;SDS011;55104;47.356;19.448;2023-05-14T04:19:14;7.22;;;2.25;;
68273;SDS011;55104;47.356;19.448;2023-05-14T04:22:17;8.07;;;2.53;;
68273;SDS011;55104;47.356;19.448;2023-05-14T04:25:19;7.90;;;2.72;;
68273;SDS011;55104;47.356;19.448;2023-05-14T04:28:21;6.30;;;2.13;;
68273;SDS011;55104;47.356;19.448;2023-05-14T04:31:23;8.20;;;2.75;;
68273;SDS011;55104;47.356;19.448;2023-05-14T04:34:25;8.77;;;2.85;;
68273;SDS011;55104;47.356;19.448;2023-05-14T04:37:27;11.05;;;2.50;;
68273;SDS011;55104;47.356;19.448;2023-05-14T04:40:29;6.13;;;2.30;;
68273;SDS011;55104;47.356;19.448;2023-05-14T04:43:31;6.53;;;2.43;;
68273;SDS011;55104;47.356;19.448;2023-05-14T04:46:33;9.82;;;2.20;;
68273;SDS011;55104;47.356;19.448;2023-05-14T04:49:36;6.65;;;2.40;;
68273;SDS011;55104;47.356;19.448;2023-05-14T04:52:38;6.70;;;2.17;;
68273;SDS011;55104;47.356;19.448;2023-05-14T04:55:40;7.20;;;2.53;;
68273;SDS011;55104;47.356;19.448;2023-05-14T04:58:41;8.23;;;2.78;;
68273;SDS011;55104;47.356;19.448;2023-05-14T05:01:43;6.90;;;1.83;;
68273;SDS011;55104;47.356;19.448;2023-05-14T05:04:46;7.13;;;2.50;;
68273;SDS011;55104;47.356;19.448;2023-05-14T05:07:48;6.27;;;2.30;;
68273;SDS011;55104;47.356;19.448;2023-05-14T05:10:50;6.30;;;2.47;;
68273;SDS011;55104;47.356;19.448;2023-05-14T05:13:52;7.63;;;2.65;;
68273;SDS011;55104;47.356;19.448;2023-05-14T05:16:54;7.53;;;2.58;;
68273;SDS011;55104;47.356;19.448;2023-05-14T05:19:56;10.73;;;2.72;;
68273;SDS011;55104;47.356;19.448;2023-05-14T05:22:58;7.07;;;2.67;;
68273;SDS011;55104;47.356;19.448;2023-05-14T05:26:00;7.18;;;2.15;;
68273;SDS011;55104;47.356;19.448;2023-05-14T05:29:02;6.75;;;2.42;;
68273;SDS011;55104;47.356;19.448;2023-05-14T05:32:05;5.43;;;2.13;;
68273;SDS011;55104;47.356;19.448;2023-05-14T05:35:07;6.47;;;2.28;;
68273;SDS011;55104;47.356;19.448;2023-05-14T05:38:10;6.10;;;2.23;;
68273;SDS011;55104;47.356;19.448;2023-05-14T05:41:12;6.68;;;2.42;;
68273;SDS011;55104;47.356;19.448;2023-05-14T05:44:14;6.45;;;2.40;;
68273;SDS011;55104;47.356;19.448;2023-05-14T05:47:16;5.93;;;1.75;;
68273;SDS011;55104;47.356;19.448;2023-05-14T05:50:18;6.30;;;2.25;;
68273;SDS011;55104;47.356;19.448;2023-05-14T05:53:20;6.50;;;2.23;;
68273;SDS011;55104;47.356;19.448;2023-05-14T05:56:22;7.38;;;2.25;;
68273;SDS011;55104;47.356;19.448;2023-05-14T05:59:24;9.32;;;2.17;;
68273;SDS011;55104;47.356;19.448;2023-05-14T06:02:27;6.93;;;2.53;;
68273;SDS011;55104;47.356;19.448;2023-05-14T06:05:29;9.00;;;2.58;;
68273;SDS011;55104;47.356;19.448;2023-05-14T06:08:31;6.20;;;2.07;;
68273;SDS011;55104;47.356;19.448;2023-05-14T06:11:33;9.93;;;2.90;;
68273;SDS011;55104;47.356;19.448;2023-05-14T06:14:35;5.38;;;2.15;;
68273;SDS011;55104;47.356;19.448;2023-05-14T06:17:37;8.18;;;2.35;;
68273;SDS011;55104;47.356;19.448;2023-05-14T06:20:40;8.63;;;2.33;;
68273;SDS011;55104;47.356;19.448;2023-05-14T06:23:42;7.67;;;2.77;;
68273;SDS011;55104;47.356;19.448;2023-05-14T06:26:44;6.28;;;2.78;;
68273;SDS011;55104;47.356;19.448;2023-05-14T06:29:46;6.55;;;2.40;;
68273;SDS011;55104;47.356;19.448;2023-05-14T06:32:48;7.50;;;2.38;;
68273;SDS011;55104;47.356;19.448;2023-05-14T06:35:50;5.88;;;1.95;;
68273;SDS011;55104;47.356;19.448;2023-05-14T06:38:53;6.80;;;2.33;;
68273;SDS011;55104;47.356;19.448;2023-05-14T06:41:55;5.95;;;2.20;;
68273;SDS011;55104;47.356;19.448;2023-05-14T06:44:57;6.85;;;2.25;;
68273;SDS011;55104;47.356;19.448;2023-05-14T06:47:59;7.70;;;2.47;;
68273;SDS011;55104;47.356;19.448;2023-05-14T06:51:01;8.73;;;3.10;;
68273;SDS011;55104;47.356;19.448;2023-05-14T06:54:04;7.07;;;2.00;;
68273;SDS011;55104;47.356;19.448;2023-05-14T06:57:06;7.40;;;2.78;;
68273;SDS011;55104;47.356;19.448;2023-05-14T07:00:08;7.53;;;2.67;;
68273;SDS011;55104;47.356;19.448;2023-05-14T07:03:10;6.60;;;2.08;;
68273;SDS011;55104;47.356;19.448;2023-05-14T07:06:12;10.77;;;2.67;;
68273;SDS011;55104;47.356;19.448;2023-05-14T07:09:14;7.17;;;2.57;;
68273;SDS011;55104;47.356;19.448;2023-05-14T07:12:17;7.25;;;2.78;;
68273;SDS011;55104;47.356;19.448;2023-05-14T07:15:19;6.75;;;2.63;;
68273;SDS011;55104;47.356;19.448;2023-05-14T07:18:22;6.45;;;2.50;;
68273;SDS011;55104;47.356;19.448;2023-05-14T07:21:24;6.35;;;2.42;;
68273;SDS011;55104;47.356;19.448;2023-05-14T07:24:26;7.07;;;2.40;;
68273;SDS011;55104;47.356;19.448;2023-05-14T07:27:28;13.10;;;3.00;;
68273;SDS011;55104;47.356;19.448;2023-05-14T07:30:30;10.40;;;3.75;;
68273;SDS011;55104;47.356;19.448;2023-05-14T07:33:33;8.38;;;3.10;;
68273;SDS011;55104;47.356;19.448;2023-05-14T07:36:37;8.73;;;2.92;;
68273;SDS011;55104;47.356;19.448;2023-05-14T07:39:39;8.30;;;3.03;;
68273;SDS011;55104;47.356;19.448;2023-05-14T07:42:42;8.77;;;2.95;;
68273;SDS011;55104;47.356;19.448;2023-05-14T07:45:44;7.10;;;2.88;;
68273;SDS011;55104;47.356;19.448;2023-05-14T07:48:46;6.05;;;2.35;;
68273;SDS011;55104;47.356;19.448;2023-05-14T07:51:48;6.38;;;2.55;;
68273;SDS011;55104;47.356;19.448;2023-05-14T07:54:50;8.63;;;3.47;;
68273;SDS011;55104;47.356;19.448;2023-05-14T07:57:52;8.15;;;2.70;;
68273;SDS011;55104;47.356;19.448;2023-05-14T08:00:54;7.10;;;2.90;;
68273;SDS011;55104;47.356;19.448;2023-05-14T08:03:57;7.53;;;2.50;;
68273;SDS011;55104;47.356;19.448;2023-05-14T08:06:59;7.28;;;2.70;;
68273;SDS011;55104;47.356;19.448;2023-05-14T08:10:01;9.87;;;2.93;;
68273;SDS011;55104;47.356;19.448;2023-05-14T08:13:04;7.55;;;3.05;;
68273;SDS011;55104;47.356;19.448;2023-05-14T08:16:06;13.82;;;4.03;;
68273;SDS011;55104;47.356;19.448;2023-05-14T08:19:08;8.48;;;3.03;;
68273;SDS011;55104;47.356;19.448;2023-05-14T08:22:10;7.72;;;3.03;;
68273;SDS011;55104;47.356;19.448;2023-05-14T08:25:12;9.80;;;3.37;;
68273;SDS011;55104;47.356;19.448;2023-05-14T08:28:14;7.38;;;3.33;;
68273;SDS011;55104;47.356;19.448;2023-05-14T08:31:16;8.80;;;3.40;;
68273;SDS011;55104;47.356;19.448;2023-05-14T08:34:18;5.88;;;2.53;;
68273;SDS011;55104;47.356;19.448;2023-05-14T08:37:21;7.40;;;2.90;;
68273;SDS011;55104;47.356;19.448;2023-05-14T08:40:23;8.03;;;3.07;;
68273;SDS011;55104;47.356;19.448;2023-05-14T08:43:26;7.53;;;2.67;;
68273;SDS011;55104;47.356;19.448;2023-05-14T08:46:49;8.07;;;3.45;;
68273;SDS011;55104;47.356;19.448;2023-05-14T08:49:57;8.13;;;3.10;;
68273;SDS011;55104;47.356;19.448;2023-05-14T08:53:03;9.43;;;3.33;;
68273;SDS011;55104;47.356;19.448;2023-05-14T08:56:05;6.47;;;2.50;;
68273;SDS011;55104;47.356;19.448;2023-05-14T08:59:09;8.45;;;3.20;;
68273;SDS011;55104;47.356;19.448;2023-05-14T09:02:11;7.97;;;3.47;;
68273;SDS011;55104;47.356;19.448;2023-05-14T09:05:18;8.15;;;3.17;;
68273;SDS011;55104;47.356;19.448;2023-05-14T09:08:21;7.32;;;2.97;;
68273;SDS011;55104;47.356;19.448;2023-05-14T09:11:23;7.70;;;2.93;;
68273;SDS011;55104;47.356;19.448;2023-05-14T09:14:25;6.70;;;2.80;;
68273;SDS011;55104;47.356;19.448;2023-05-14T09:17:27;9.35;;;3.20;;
68273;SDS011;55104;47.356;19.448;2023-05-14T09:20:29;8.52;;;3.15;;
68273;SDS011;55104;47.356;19.448;2023-05-14T09:23:32;8.20;;;2.90;;
68273;SDS011;55104;47.356;19.448;2023-05-14T09:26:35;7.47;;;3.13;;
68273;SDS011;55104;47.356;19.448;2023-05-14T09:29:37;6.60;;;2.88;;
68273;SDS011;55104;47.356;19.448;2023-05-14T09:32:40;7.15;;;2.60;;
68273;SDS011;55104;47.356;19.448;2023-05-14T09:35:45;6.55;;;2.67;;
68273;SDS011;55104;47.356;19.448;2023-05-14T09:38:48;6.80;;;2.67;;
68273;SDS011;55104;47.356;19.448;2023-05-14T09:41:50;7.00;;;2.60;;
68273;SDS011;55104;47.356;19.448;2023-05-14T09:44:52;8.05;;;3.28;;
68273;SDS011;55104;47.356;19.448;2023-05-14T09:47:54;9.02;;;3.33;;
68273;SDS011;55104;47.356;19.448;2023-05-14T09:50:56;7.75;;;3.38;;
68273;SDS011;55104;47.356;19.448;2023-05-14T09:53:59;8.57;;;3.65;;
68273;SDS011;55104;47.356;19.448;2023-05-14T09:57:01;10.40;;;3.33;;
68273;SDS011;55104;47.356;19.448;2023-05-14T10:00:03;7.50;;;3.03;;
68273;SDS011;55104;47.356;19.448;2023-05-14T10:03:06;7.35;;;3.42;;
68273;SDS011;55104;47.356;19.448;2023-05-14T10:06:08;8.45;;;2.88;;
68273;SDS011;55104;47.356;19.448;2023-05-14T10:09:14;7.60;;;3.13;;
68273;SDS011;55104;47.356;19.448;2023-05-14T10:12:18;6.83;;;2.73;;
68273;SDS011;55104;47.356;19.448;2023-05-14T10:15:25;8.88;;;3.47;;
68273;SDS011;55104;47.356;19.448;2023-05-14T10:18:30;8.77;;;3.42;;
68273;SDS011;55104;47.356;19.448;2023-05-14T10:21:40;7.65;;;3.08;;
68273;SDS011;55104;47.356;19.448;2023-05-14T10:24:46;9.15;;;3.22;;
68273;SDS011;55104;47.356;19.448;2023-05-14T10:27:50;9.83;;;3.50;;
68273;SDS011;55104;47.356;19.448;2023-05-14T10:30:53;7.50;;;3.13;;
68273;SDS011;55104;47.356;19.448;2023-05-14T10:33:55;8.18;;;3.10;;
68273;SDS011;55104;47.356;19.448;2023-05-14T10:37:00;9.10;;;3.13;;
68273;SDS011;55104;47.356;19.448;2023-05-14T10:40:03;9.32;;;3.33;;
68273;SDS011;55104;47.356;19.448;2023-05-14T10:43:08;8.77;;;3.73;;
68273;SDS011;55104;47.356;19.448;2023-05-14T10:46:12;9.18;;;3.90;;
68273;SDS011;55104;47.356;19.448;2023-05-14T10:49:15;7.80;;;3.30;;
68273;SDS011;55104;47.356;19.448;2023-05-14T10:52:33;7.60;;;3.10;;
68273;SDS011;55104;47.356;19.448;2023-05-14T10:55:35;9.25;;;3.33;;
68273;SDS011;55104;47.356;19.448;2023-05-14T10:58:41;6.50;;;2.67;;
68273;SDS011;55104;47.356;19.448;2023-05-14T11:01:45;8.73;;;3.45;;
68273;SDS011;55104;47.356;19.448;2023-05-14T11:04:58;9.80;;;3.80;;
68273;SDS011;55104;47.356;19.448;2023-05-14T11:08:04;9.57;;;3.83;;
68273;SDS011;55104;47.356;19.448;2023-05-14T11:11:08;8.40;;;3.60;;
68273;SDS011;55104;47.356;19.448;2023-05-14T11:14:11;8.53;;;2.97;;
68273;SDS011;55104;47.356;19.448;2023-05-14T11:17:13;7.93;;;3.17;;
68273;SDS011;55104;47.356;19.448;2023-05-14T11:20:16;9.32;;;3.53;;
68273;SDS011;55104;47.356;19.448;2023-05-14T11:23:20;10.00;;;3.80;;
68273;SDS011;55104;47.356;19.448;2023-05-14T11:26:24;8.95;;;3.55;;
68273;SDS011;55104;47.356;19.448;2023-05-14T11:29:26;9.77;;;3.43;;
68273;SDS011;55104;47.356;19.448;2023-05-14T11:32:30;9.00;;;3.45;;
68273;SDS011;55104;47.356;19.448;2023-05-14T11:35:32;9.10;;;3.92;;
68273;SDS011;55104;47.356;19.448;2023-05-14T11:38:34;7.88;;;3.40;;
68273;SDS011;55104;47.356;19.448;2023-05-14T11:41:49;6.53;;;2.80;;
68273;SDS011;55104;47.356;19.448;2023-05-14T11:44:51;9.00;;;2.83;;
68273;SDS011;55104;47.356;19.448;2023-05-14T11:47:57;8.23;;;3.40;;
68273;SDS011;55104;47.356;19.448;2023-05-14T11:50:59;9.18;;;3.22;;
68273;SDS011;55104;47.356;19.448;2023-05-14T11:54:01;9.07;;;3.58;;
68273;SDS011;55104;47.356;19.448;2023-05-14T11:57:09;9.88;;;4.10;;
68273;SDS011;55104;47.356;19.448;2023-05-14T12:00:19;10.83;;;3.67;;
68273;SDS011;55104;47.356;19.448;2023-05-14T12:03:22;9.38;;;3.65;;
68273;SDS011;55104;47.356;19.448;2023-05-14T12:06:31;12.48;;;4.07;;
68273;SDS011;55104;47.356;19.448;2023-05-14T12:09:34;9.70;;;3.92;;
68273;SDS011;55104;47.356;19.448;2023-05-14T12:12:39;11.20;;;4.72;;
68273;SDS011;55104;47.356;19.448;2023-05-14T12:15:43;8.83;;;4.03;;
68273;SDS011;55104;47.356;19.448;2023-05-14T12:18:47;7.97;;;3.55;;
68273;SDS011;55104;47.356;19.448;2023-05-14T12:21:49;9.02;;;4.18;;
68273;SDS011;55104;47.356;19.448;2023-05-14T12:24:52;10.23;;;4.70;;
68273;SDS011;55104;47.356;19.448;2023-05-14T12:27:55;8.23;;;3.45;;
68273;SDS011;55104;47.356;19.448;2023-05-14T12:30:57;10.40;;;4.23;;
68273;SDS011;55104;47.356;19.448;2023-05-14T12:34:00;11.63;;;3.92;;
68273;SDS011;55104;47.356;19.448;2023-05-14T12:37:04;9.95;;;4.28;;
68273;SDS011;55104;47.356;19.448;2023-05-14T12:40:09;9.77;;;3.70;;
68273;SDS011;55104;47.356;19.448;2023-05-14T12:43:12;9.45;;;4.63;;
68273;SDS011;55104;47.356;19.448;2023-05-14T12:46:14;7.73;;;3.60;;
68273;SDS011;55104;47.356;19.448;2023-05-14T12:49:17;10.27;;;3.90;;
68273;SDS011;55104;47.356;19.448;2023-05-14T12:52:20;8.55;;;3.72;;
68273;SDS011;55104;47.356;19.448;2023-05-14T12:55:37;9.68;;;3.90;;
68273;SDS011;55104;47.356;19.448;2023-05-14T12:58:39;9.75;;;3.78;;
68273;SDS011;55104;47.356;19.448;2023-05-14T13:01:42;9.97;;;4.63;;
68273;SDS011;55104;47.356;19.448;2023-05-14T13:04:44;11.02;;;4.63;;
68273;SDS011;55104;47.356;19.448;2023-05-14T13:07:46;9.43;;;3.92;;
68273;SDS011;55104;47.356;19.448;2023-05-14T13:10:48;15.15;;;4.47;;
68273;SDS011;55104;47.356;19.448;2023-05-14T13:13:50;10.43;;;4.78;;
68273;SDS011;55104;47.356;19.448;2023-05-14T13:16:52;10.30;;;3.93;;
68273;SDS011;55104;47.356;19.448;2023-05-14T13:19:54;8.27;;;3.95;;
68273;SDS011;55104;47.356;19.448;2023-05-14T13:22:57;10.70;;;4.30;;
68273;SDS011;55104;47.356;19.448;2023-05-14T13:25:59;9.55;;;4.22;;
68273;SDS011;55104;47.356;19.448;2023-05-14T13:29:01;8.40;;;3.97;;
68273;SDS011;55104;47.356;19.448;2023-05-14T13:32:03;9.73;;;4.27;;
68273;SDS011;55104;47.356;19.448;2023-05-14T13:35:05;8.77;;;3.47;;
68273;SDS011;55104;47.356;19.448;2023-05-14T13:38:08;8.48;;;3.40;;
68273;SDS011;55104;47.356;19.448;2023-05-14T13:41:10;9.82;;;3.80;;
68273;SDS011;55104;47.356;19.448;2023-05-14T13:44:12;8.25;;;3.05;;
68273;SDS011;55104;47.356;19.448;2023-05-14T13:47:14;4.97;;;1.90;;
68273;SDS011;55104;47.356;19.448;2023-05-14T13:50:16;7.57;;;2.78;;
68273;SDS011;55104;47.356;19.448;2023-05-14T13:53:19;8.20;;;3.00;;
68273;SDS011;55104;47.356;19.448;2023-05-14T13:56:21;7.60;;;2.20;;
68273;SDS011;55104;47.356;19.448;2023-05-14T13:59:23;9.10;;;2.35;;
68273;SDS011;55104;47.356;19.448;2023-05-14T14:02:25;6.23;;;2.33;;
68273;SDS011;55104;47.356;19.448;2023-05-14T14:05:27;8.60;;;2.40;;
68273;SDS011;55104;47.356;19.448;2023-05-14T14:08:30;7.75;;;2.30;;
68273;SDS011;55104;47.356;19.448;2023-05-14T14:11:32;6.38;;;2.22;;
68273;SDS011;55104;47.356;19.448;2023-05-14T14:14:34;7.32;;;2.00;;
68273;SDS011;55104;47.356;19.448;2023-05-14T14:17:36;6.60;;;2.43;;
68273;SDS011;55104;47.356;19.448;2023-05-14T14:20:39;7.03;;;2.70;;
68273;SDS011;55104;47.356;19.448;2023-05-14T14:23:41;9.80;;;3.15;;
68273;SDS011;55104;47.356;19.448;2023-05-14T14:26:43;8.70;;;2.72;;
68273;SDS011;55104;47.356;19.448;2023-05-14T14:29:45;9.00;;;2.47;;
68273;SDS011;55104;47.356;19.448;2023-05-14T14:32:47;8.43;;;2.50;;
68273;SDS011;55104;47.356;19.448;2023-05-14T14:35:50;6.93;;;2.50;;
68273;SDS011;55104;47.356;19.448;2023-05-14T14:38:52;9.57;;;2.65;;
68273;SDS011;55104;47.356;19.448;2023-05-14T14:41:54;11.52;;;3.10;;
68273;SDS011;55104;47.356;19.448;2023-05-14T14:44:56;6.13;;;2.47;;
68273;SDS011;55104;47.356;19.448;2023-05-14T14:51:37;5.13;;;1.95;;
68273;SDS011;55104;47.356;19.448;2023-05-14T14:54:40;8.45;;;2.88;;
68273;SDS011;55104;47.356;19.448;2023-05-14T14:57:43;8.75;;;3.03;;
68273;SDS011;55104;47.356;19.448;2023-05-14T15:00:45;6.57;;;2.38;;
68273;SDS011;55104;47.356;19.448;2023-05-14T15:03:48;7.63;;;2.87;;
68273;SDS011;55104;47.356;19.448;2023-05-14T15:06:50;9.15;;;2.78;;
68273;SDS011;55104;47.356;19.448;2023-05-14T15:09:52;9.02;;;3.10;;
68273;SDS011;55104;47.356;19.448;2023-05-14T15:12:57;6.07;;;2.22;;
68273;SDS011;55104;47.356;19.448;2023-05-14T15:16:00;5.85;;;2.08;;
68273;SDS011;55104;47.356;19.448;2023-05-14T15:19:02;5.97;;;2.20;;
68273;SDS011;55104;47.356;19.448;2023-05-14T15:22:04;6.63;;;2.33;;
68273;SDS011;55104;47.356;19.448;2023-05-14T15:25:07;7.65;;;2.55;;
68273;SDS011;55104;47.356;19.448;2023-05-14T15:28:10;5.78;;;2.40;;
68273;SDS011;55104;47.356;19.448;2023-05-14T15:31:12;6.28;;;2.38;;
68273;SDS011;55104;47.356;19.448;2023-05-14T15:34:14;6.00;;;2.00;;
68273;SDS011;55104;47.356;19.448;2023-05-14T15:37:16;5.45;;;2.55;;
68273;SDS011;55104;47.356;19.448;2023-05-14T15:40:18;6.22;;;2.03;;
68273;SDS011;55104;47.356;19.448;2023-05-14T15:43:20;7.32;;;2.22;;
68273;SDS011;55104;47.356;19.448;2023-05-14T15:46:22;7.18;;;2.72;;
68273;SDS011;55104;47.356;19.448;2023-05-14T15:49:24;7.33;;;2.10;;
68273;SDS011;55104;47.356;19.448;2023-05-14T15:52:27;11.05;;;2.70;;
68273;SDS011;55104;47.356;19.448;2023-05-14T15:55:29;4.80;;;1.58;;
68273;SDS011;55104;47.356;19.448;2023-05-14T15:58:31;6.25;;;1.75;;
68273;SDS011;55104;47.356;19.448;2023-05-14T16:01:33;5.43;;;1.45;;
68273;SDS011;55104;47.356;19.448;2023-05-14T16:04:35;5.10;;;1.70;;
68273;SDS011;55104;47.356;19.448;2023-05-14T16:07:37;6.45;;;2.08;;
68273;SDS011;55104;47.356;19.448;2023-05-14T16:10:39;5.05;;;1.67;;
68273;SDS011;55104;47.356;19.448;2023-05-14T16:13:41;6.78;;;2.08;;
68273;SDS011;55104;47.356;19.448;2023-05-14T16:16:43;6.55;;;2.05;;
68273;SDS011;55104;47.356;19.448;2023-05-14T16:19:46;6.87;;;2.33;;
68273;SDS011;55104;47.356;19.448;2023-05-14T16:22:48;7.18;;;2.53;;
68273;SDS011;55104;47.356;19.448;2023-05-14T16:25:49;6.43;;;2.25;;
68273;SDS011;55104;47.356;19.448;2023-05-14T16:28:52;6.20;;;1.70;;
68273;SDS011;55104;47.356;19.448;2023-05-14T16:31:53;7.50;;;2.20;;
68273;SDS011;55104;47.356;19.448;2023-05-14T16:34:56;6.53;;;2.07;;
68273;SDS011;55104;47.356;19.448;2023-05-14T16:37:57;4.95;;;1.88;;
68273;SDS011;55104;47.356;19.448;2023-05-14T16:41:00;5.80;;;2.15;;
68273;SDS011;55104;47.356;19.448;2023-05-14T16:44:02;6.43;;;2.42;;
68273;SDS011;55104;47.356;19.448;2023-05-14T16:47:04;6.03;;;2.40;;
68273;SDS011;55104;47.356;19.448;2023-05-14T16:50:06;6.63;;;2.27;;
68273;SDS011;55104;47.356;19.448;2023-05-14T16:53:09;7.68;;;2.45;;
68273;SDS011;55104;47.356;19.448;2023-05-14T16:56:11;7.90;;;2.97;;
68273;SDS011;55104;47.356;19.448;2023-05-14T16:59:13;7.78;;;2.95;;
68273;SDS011;55104;47.356;19.448;2023-05-14T17:02:16;6.63;;;2.45;;
68273;SDS011;55104;47.356;19.448;2023-05-14T17:05:18;6.93;;;2.63;;
68273;SDS011;55104;47.356;19.448;2023-05-14T17:08:21;6.45;;;2.60;;
68273;SDS011;55104;47.356;19.448;2023-05-14T17:11:23;6.65;;;2.63;;
68273;SDS011;55104;47.356;19.448;2023-05-14T17:14:25;6.07;;;2.03;;
68273;SDS011;55104;47.356;19.448;2023-05-14T17:17:27;7.00;;;2.72;;
68273;SDS011;55104;47.356;19.448;2023-05-14T17:20:29;6.57;;;2.27;;
68273;SDS011;55104;47.356;19.448;2023-05-14T17:23:31;8.98;;;2.75;;
68273;SDS011;55104;47.356;19.448;2023-05-14T17:26:34;8.80;;;3.50;;
68273;SDS011;55104;47.356;19.448;2023-05-14T17:29:36;8.82;;;2.78;;
68273;SDS011;55104;47.356;19.448;2023-05-14T17:32:38;6.25;;;2.38;;
68273;SDS011;55104;47.356;19.448;2023-05-14T17:35:40;6.00;;;2.07;;
68273;SDS011;55104;47.356;19.448;2023-05-14T17:38:44;6.25;;;2.33;;
68273;SDS011;55104;47.356;19.448;2023-05-14T17:41:46;6.95;;;2.58;;
68273;SDS011;55104;47.356;19.448;2023-05-14T17:44:48;7.00;;;3.22;;
68273;SDS011;55104;47.356;19.448;2023-05-14T17:47:50;6.50;;;2.47;;
68273;SDS011;55104;47.356;19.448;2023-05-14T17:50:52;6.33;;;2.43;;
68273;SDS011;55104;47.356;19.448;2023-05-14T17:53:54;7.85;;;2.67;;
68273;SDS011;55104;47.356;19.448;2023-05-14T17:56:56;10.30;;;3.83;;
68273;SDS011;55104;47.356;19.448;2023-05-14T17:59:59;8.25;;;3.17;;
68273;SDS011;55104;47.356;19.448;2023-05-14T18:03:01;8.32;;;2.85;;
68273;SDS011;55104;47.356;19.448;2023-05-14T18:06:03;7.17;;;2.73;;
68273;SDS011;55104;47.356;19.448;2023-05-14T18:09:05;8.15;;;2.83;;
68273;SDS011;55104;47.356;19.448;2023-05-14T18:12:08;6.97;;;2.60;;
68273;SDS011;55104;47.356;19.448;2023-05-14T18:15:10;7.82;;;2.95;;